createdAt,value
2019-01-28T00:01:03.779Z,1.77
2019-01-28T00:03:51.531Z,1.30
2019-01-28T00:06:39.554Z,1.53
2019-01-28T00:12:16.055Z,1.43
2019-01-28T00:14:44.473Z,2.13
2019-01-28T00:17:12.898Z,1.70
2019-01-28T00:22:15.262Z,1.87
2019-01-28T00:24:43.683Z,1.27
2019-01-28T00:29:46.018Z,2.03
2019-01-28T00:32:14.440Z,1.67
2019-01-28T00:34:42.910Z,1.60
2019-01-28T00:37:11.329Z,1.80
2019-01-28T00:39:39.753Z,2.90
2019-01-28T00:42:08.434Z,1.80
2019-01-28T00:44:36.921Z,1.33
2019-01-28T00:47:05.591Z,2.30
2019-01-28T00:49:34.045Z,2.10
2019-01-28T00:52:02.458Z,1.60
2019-01-28T00:54:30.906Z,1.33
2019-01-28T00:56:59.422Z,2.30
2019-01-28T00:59:27.842Z,1.30
2019-01-28T01:01:56.262Z,1.10
2019-01-28T01:04:25.072Z,1.47
2019-01-28T01:06:53.634Z,1.67
2019-01-28T01:09:22.118Z,1.50
2019-01-28T01:11:50.590Z,1.47
2019-01-28T01:14:19.029Z,1.63
2019-01-28T01:16:47.448Z,1.50
2019-01-28T01:19:16.077Z,1.00
2019-01-28T01:21:44.539Z,1.40
2019-01-28T01:24:12.938Z,1.40
2019-01-28T01:26:41.483Z,1.57
2019-01-28T01:29:09.949Z,1.00
2019-01-28T01:31:38.373Z,1.23
2019-01-28T01:34:06.823Z,1.47
2019-01-28T01:36:35.239Z,1.40
2019-01-28T01:39:05.228Z,1.77
2019-01-28T01:41:33.697Z,0.73
2019-01-28T01:44:02.115Z,1.10
2019-01-28T01:46:30.535Z,1.43
2019-01-28T01:48:58.986Z,1.30
2019-01-28T01:51:27.483Z,1.63
2019-01-28T01:53:55.909Z,0.73
2019-01-28T01:56:24.391Z,0.80
2019-01-28T01:58:52.805Z,0.87
2019-01-28T02:01:21.227Z,0.90
2019-01-28T02:03:49.669Z,0.83
2019-01-28T02:06:18.090Z,0.80
2019-01-28T02:08:46.544Z,0.97
2019-01-28T02:11:14.968Z,0.80
2019-01-28T02:13:43.390Z,0.70
2019-01-28T02:16:11.912Z,0.50
2019-01-28T02:18:40.826Z,0.60
2019-01-28T02:21:09.682Z,0.50
2019-01-28T02:23:38.097Z,0.80
2019-01-28T02:26:06.614Z,0.60
2019-01-28T02:28:35.034Z,0.87
2019-01-28T02:31:03.592Z,0.60
2019-01-28T02:33:32.039Z,0.70
2019-01-28T02:36:00.458Z,0.63
2019-01-28T02:38:28.876Z,0.70
2019-01-28T02:40:57.357Z,0.70
2019-01-28T02:43:25.795Z,0.70
2019-01-28T02:45:54.272Z,0.70
2019-01-28T02:48:22.834Z,0.40
2019-01-28T02:50:51.253Z,0.77
2019-01-28T02:53:19.672Z,0.60
2019-01-28T02:55:48.458Z,0.50
2019-01-28T02:58:16.905Z,0.50
2019-01-28T03:00:45.302Z,0.50
2019-01-28T03:03:13.750Z,0.60
2019-01-28T03:05:42.195Z,0.47
2019-01-28T03:08:10.683Z,0.50
2019-01-28T03:10:39.130Z,0.60
2019-01-28T03:13:07.566Z,0.50
2019-01-28T03:15:35.987Z,0.60
2019-01-28T03:18:04.774Z,0.40
2019-01-28T03:20:33.196Z,0.87
2019-01-28T03:23:01.615Z,0.53
2019-01-28T03:25:30.251Z,0.40
2019-01-28T03:27:58.701Z,0.50
2019-01-28T03:30:27.129Z,0.53
2019-01-28T03:32:55.636Z,0.40
2019-01-28T03:35:24.039Z,0.50
2019-01-28T03:37:52.459Z,0.60
2019-01-28T03:40:21.679Z,0.40
2019-01-28T03:42:50.935Z,0.40
2019-01-28T03:45:21.504Z,0.40
2019-01-28T03:47:51.753Z,0.40
2019-01-28T03:50:20.512Z,0.50
2019-01-28T03:52:49.010Z,0.40
2019-01-28T03:55:17.582Z,0.40
2019-01-28T03:57:46.280Z,0.40
2019-01-28T04:00:17.783Z,0.40
2019-01-28T04:02:46.322Z,0.30
2019-01-28T04:05:15.080Z,0.30
2019-01-28T04:07:43.671Z,0.30
2019-01-28T04:10:17.763Z,0.30
2019-01-28T04:12:46.252Z,0.30
2019-01-28T04:15:17.608Z,0.30
2019-01-28T04:17:46.199Z,0.40
2019-01-28T04:20:16.363Z,0.40
2019-01-28T04:22:44.871Z,0.30
2019-01-28T04:25:13.990Z,0.30
2019-01-28T04:27:42.480Z,0.40
2019-01-28T04:30:25.899Z,0.40
2019-01-28T04:32:54.323Z,0.30
2019-01-28T04:35:22.905Z,0.23
2019-01-28T04:37:51.356Z,0.40
2019-01-28T04:40:20.125Z,0.30
2019-01-28T04:42:48.545Z,0.30
2019-01-28T04:45:19.320Z,0.30
2019-01-28T04:47:48.681Z,0.30
2019-01-28T04:50:18.952Z,0.40
2019-01-28T04:52:47.657Z,0.30
2019-01-28T04:55:16.813Z,0.30
2019-01-28T04:57:45.573Z,0.30
2019-01-28T05:00:22.990Z,0.30
2019-01-28T05:02:51.581Z,0.40
2019-01-28T05:05:20.139Z,0.30
2019-01-28T05:07:48.693Z,0.30
2019-01-28T05:10:19.051Z,0.30
2019-01-28T05:12:47.611Z,0.20
2019-01-28T05:15:18.105Z,0.30
2019-01-28T05:17:46.634Z,0.40
2019-01-28T05:20:20.567Z,0.30
2019-01-28T05:22:49.115Z,0.30
2019-01-28T05:25:18.177Z,0.40
2019-01-28T05:27:47.043Z,0.40
2019-01-28T05:30:21.488Z,0.50
2019-01-28T05:32:50.338Z,0.40
2019-01-28T05:35:20.093Z,0.30
2019-01-28T05:37:48.641Z,1.23
2019-01-28T05:40:24.579Z,0.30
2019-01-28T05:42:53.245Z,0.30
2019-01-28T05:45:23.413Z,0.40
2019-01-28T05:47:52.074Z,0.60
2019-01-28T05:50:20.831Z,0.50
2019-01-28T05:52:49.357Z,0.50
2019-01-28T05:55:19.135Z,0.50
2019-01-28T05:57:47.895Z,0.40
2019-01-28T06:00:29.780Z,0.70
2019-01-28T06:02:58.210Z,0.50
2019-01-28T06:05:26.699Z,0.70
2019-01-28T06:07:55.264Z,0.53
2019-01-28T06:10:23.686Z,0.60
2019-01-28T06:12:52.246Z,0.43
2019-01-28T06:15:21.146Z,0.53
2019-01-28T06:17:49.566Z,0.40
2019-01-28T06:20:22.813Z,0.67
2019-01-28T06:22:51.626Z,0.70
2019-01-28T06:25:20.124Z,0.53
2019-01-28T06:27:48.540Z,0.60
2019-01-28T06:30:36.358Z,0.30
2019-01-28T06:33:44.695Z,0.50
2019-01-28T06:36:13.176Z,0.50
2019-01-28T06:38:41.597Z,0.50
2019-01-28T06:41:29.314Z,0.60
2019-01-28T06:43:57.730Z,1.00
2019-01-28T06:46:26.151Z,0.40
2019-01-28T06:48:54.593Z,0.70
2019-01-28T06:51:23.015Z,0.87
2019-01-28T06:53:51.449Z,0.50
2019-01-28T06:56:19.939Z,0.67
2019-01-28T06:58:48.384Z,0.80
2019-01-28T07:04:11.498Z,0.80
2019-01-28T07:06:39.918Z,0.60
2019-01-28T07:09:48.289Z,0.60
2019-01-28T07:15:45.716Z,0.40
2019-01-28T07:18:14.137Z,0.50
2019-01-28T07:20:42.578Z,0.70
2019-01-28T07:23:30.432Z,0.67
2019-01-28T07:26:18.057Z,0.47
2019-01-28T07:29:05.849Z,0.50
2019-01-28T07:31:34.262Z,0.80
2019-01-28T07:34:02.710Z,0.40
2019-01-28T07:36:31.163Z,0.47
2019-01-28T07:39:18.801Z,0.70
2019-01-28T07:41:47.292Z,0.50
2019-01-28T07:44:34.902Z,0.50
2019-01-28T07:47:03.363Z,0.40
2019-01-28T07:49:31.786Z,0.50
2019-01-28T07:57:48.739Z,0.70
2019-01-28T08:00:36.991Z,0.50
2019-01-28T08:03:06.127Z,0.60
2019-01-28T08:05:34.965Z,0.90
2019-01-28T08:08:04.056Z,0.60
2019-01-28T08:10:32.768Z,0.80
2019-01-28T08:13:01.483Z,0.60
2019-01-28T08:15:30.600Z,0.50
2019-01-28T08:17:59.090Z,0.63
2019-01-28T08:20:27.874Z,0.40
2019-01-28T08:22:56.472Z,0.40
2019-01-28T08:25:25.350Z,0.53
2019-01-28T08:27:54.297Z,0.60
2019-01-28T08:30:28.932Z,0.50
2019-01-28T08:32:57.771Z,0.40
2019-01-28T08:35:35.893Z,0.50
2019-01-28T08:38:04.760Z,0.80
2019-01-28T08:40:33.628Z,0.80
2019-01-28T08:43:02.457Z,0.60
2019-01-28T08:45:31.171Z,0.50
2019-01-28T08:47:59.935Z,0.60
2019-01-28T08:50:29.787Z,0.70
2019-01-28T08:52:58.206Z,1.00
2019-01-28T08:55:28.768Z,0.70
2019-01-28T08:57:57.657Z,0.60
2019-01-28T09:00:35.048Z,0.63
2019-01-28T09:03:03.985Z,0.50
2019-01-28T09:05:33.068Z,0.70
2019-01-28T09:08:01.538Z,0.57
2019-01-28T09:10:31.523Z,0.50
2019-01-28T09:13:00.406Z,1.10
2019-01-28T09:15:29.366Z,0.80
2019-01-28T09:17:58.354Z,0.80
2019-01-28T09:20:32.250Z,0.60
2019-01-28T09:23:01.074Z,0.47
2019-01-28T09:25:31.318Z,0.60
2019-01-28T09:28:06.304Z,1.10
2019-01-28T09:30:36.115Z,0.70
2019-01-28T09:33:05.435Z,0.70
2019-01-28T09:35:34.269Z,0.60
2019-01-28T09:38:03.218Z,0.63
2019-01-28T09:40:34.187Z,0.63
2019-01-28T09:43:03.041Z,0.60
2019-01-28T09:45:34.567Z,0.47
2019-01-28T09:48:03.347Z,0.40
2019-01-28T09:50:32.199Z,0.70
2019-01-28T09:53:01.416Z,0.50
2019-01-28T09:55:30.280Z,0.57
2019-01-28T09:57:59.114Z,0.50
2019-01-28T10:00:30.723Z,0.60
2019-01-28T10:02:59.700Z,1.17
2019-01-28T10:05:28.628Z,0.60
2019-01-28T10:07:57.662Z,0.40
2019-01-28T10:10:26.526Z,0.60
2019-01-28T10:12:55.239Z,0.50
2019-01-28T10:15:28.738Z,0.67
2019-01-28T10:17:56.827Z,0.50
2019-01-28T10:20:31.021Z,0.47
2019-01-28T10:22:59.886Z,0.50
2019-01-28T10:25:28.775Z,0.50
2019-01-28T10:27:57.770Z,0.30
2019-01-28T10:30:32.447Z,0.43
2019-01-28T10:33:01.433Z,0.30
2019-01-28T10:35:31.292Z,0.30
2019-01-28T10:38:00.242Z,0.33
2019-01-28T10:40:31.480Z,0.40
2019-01-28T10:43:00.750Z,0.70
2019-01-28T10:45:29.323Z,0.50
2019-01-28T10:48:00.631Z,0.30
2019-01-28T10:50:29.633Z,0.40
2019-01-28T10:56:34.122Z,0.40
2019-01-28T10:59:02.625Z,0.40
2019-01-28T11:01:34.018Z,0.50
2019-01-28T11:04:02.882Z,0.50
2019-01-28T11:20:27.113Z,0.30
2019-01-28T11:22:56.054Z,0.60
2019-01-28T11:25:31.014Z,0.40
2019-01-28T11:28:00.208Z,0.40
2019-01-28T11:30:53.667Z,0.40
2019-01-28T11:33:22.357Z,0.43
2019-01-28T11:35:51.492Z,0.40
2019-01-28T11:38:23.190Z,0.30
2019-01-28T11:40:52.199Z,0.30
2019-01-28T11:43:20.798Z,0.40
2019-01-28T11:45:58.488Z,0.30
2019-01-28T11:48:27.252Z,0.40
2019-01-28T11:50:56.410Z,0.40
2019-01-28T12:13:02.070Z,0.30
2019-01-28T12:15:30.997Z,0.30
2019-01-28T12:17:59.924Z,0.30
2019-01-28T12:20:28.865Z,0.30
2019-01-28T12:22:57.753Z,0.60
2019-01-28T12:25:26.353Z,0.30
2019-01-28T12:27:55.249Z,0.40
2019-01-28T12:30:32.136Z,0.27
2019-01-28T12:33:01.930Z,0.40
2019-01-28T12:35:30.766Z,0.43
2019-01-28T12:38:00.024Z,0.30
2019-01-28T12:40:28.998Z,0.43
2019-01-28T12:42:57.494Z,0.30
2019-01-28T12:45:28.086Z,0.30
2019-01-28T12:48:00.385Z,0.40
2019-01-28T12:50:29.462Z,0.30
2019-01-28T12:52:58.426Z,0.30
2019-01-28T12:55:28.064Z,0.40
2019-01-28T12:57:56.827Z,0.33
2019-01-28T13:00:38.146Z,0.40
2019-01-28T13:03:07.711Z,0.50
2019-01-28T13:05:37.604Z,0.30
2019-01-28T13:08:06.183Z,0.40
2019-01-28T13:10:34.864Z,0.40
2019-01-28T13:13:03.353Z,0.40
2019-01-28T13:15:33.945Z,0.33
2019-01-28T13:18:02.440Z,0.30
2019-01-28T13:20:30.997Z,0.80
2019-01-28T13:22:59.521Z,0.30
2019-01-28T13:25:36.060Z,0.40
2019-01-28T13:28:05.850Z,0.40
2019-01-28T13:30:39.295Z,0.40
2019-01-28T13:33:11.451Z,0.30
2019-01-28T13:35:40.113Z,0.30
2019-01-28T13:38:08.767Z,0.40
2019-01-28T13:40:37.405Z,0.30
2019-01-28T13:43:06.252Z,0.30
2019-01-28T13:45:35.122Z,0.30
2019-01-28T13:48:05.351Z,0.30
2019-01-28T13:50:33.830Z,0.40
2019-01-28T13:53:02.319Z,0.40
2019-01-28T13:55:31.091Z,0.57
2019-01-28T13:57:59.563Z,0.40
2019-01-28T14:00:29.317Z,0.30
2019-01-28T14:02:58.719Z,0.47
2019-01-28T14:05:27.566Z,0.50
2019-01-28T14:07:57.122Z,0.70
2019-01-28T14:10:26.124Z,0.40
2019-01-28T14:12:54.878Z,0.40
2019-01-28T14:15:28.807Z,0.40
2019-01-28T14:17:57.422Z,0.50
2019-01-28T14:20:28.559Z,0.40
2019-01-28T14:22:57.053Z,0.30
2019-01-28T14:25:25.682Z,2.47
2019-01-28T14:27:54.123Z,2.67
2019-01-28T14:30:37.757Z,1.13
2019-01-28T14:33:07.117Z,1.90
2019-01-28T14:35:35.880Z,1.27
2019-01-28T14:38:05.763Z,1.20
2019-01-28T14:40:34.422Z,0.50
2019-01-28T14:43:02.912Z,0.40
2019-01-28T14:45:31.430Z,0.40
2019-01-28T14:48:00.008Z,0.40
2019-01-28T14:50:31.486Z,0.57
2019-01-28T14:53:00.120Z,0.40
2019-01-28T14:55:28.629Z,0.40
2019-01-28T14:57:57.210Z,0.60
2019-01-28T15:00:34.230Z,0.57
2019-01-28T15:03:02.653Z,0.37
2019-01-28T15:05:31.538Z,0.40
2019-01-28T15:08:00.419Z,0.40
2019-01-28T15:10:28.903Z,0.40
2019-01-28T15:12:57.425Z,0.40
2019-01-28T15:15:31.119Z,0.70
2019-01-28T15:18:00.093Z,0.40
2019-01-28T15:20:28.656Z,0.40
2019-01-28T15:22:57.177Z,0.40
2019-01-28T15:25:25.762Z,0.30
2019-01-28T15:27:54.170Z,1.20
2019-01-28T15:30:25.633Z,0.40
2019-01-28T15:32:54.357Z,0.40
2019-01-28T15:35:23.145Z,0.30
2019-01-28T15:37:51.639Z,0.40
2019-01-28T15:40:25.618Z,0.40
2019-01-28T15:42:54.111Z,0.37
2019-01-28T15:45:28.328Z,0.30
2019-01-28T15:47:56.989Z,0.70
2019-01-28T15:50:25.652Z,0.40
2019-01-28T15:52:54.091Z,0.40
2019-01-28T15:55:28.230Z,0.40
2019-01-28T15:57:56.714Z,0.40
2019-01-28T16:00:28.359Z,0.50
2019-01-28T16:02:57.020Z,0.40
2019-01-28T16:05:25.438Z,0.60
2019-01-28T16:07:54.039Z,0.93
2019-01-28T16:10:22.630Z,0.43
2019-01-28T16:12:51.091Z,0.50
2019-01-28T16:15:25.640Z,0.90
2019-01-28T16:17:54.213Z,0.60
2019-01-28T16:20:22.779Z,0.60
2019-01-28T16:22:51.330Z,0.77
2019-01-28T16:25:19.827Z,1.13
2019-01-28T16:27:48.487Z,0.70
2019-01-28T16:30:26.574Z,0.97
2019-01-28T16:32:55.402Z,1.23
2019-01-28T16:35:24.429Z,1.67
2019-01-28T16:37:54.075Z,0.93
2019-01-28T16:40:29.919Z,0.90
2019-01-28T16:42:59.507Z,1.33
2019-01-28T16:45:28.065Z,1.80
2019-01-28T16:47:56.654Z,1.57
2019-01-28T16:50:30.697Z,1.33
2019-01-28T16:52:59.189Z,1.47
2019-01-28T16:55:27.758Z,1.50
2019-01-28T16:57:56.982Z,0.93
2019-01-28T17:00:30.260Z,1.53
2019-01-28T17:02:58.819Z,1.40
2019-01-28T17:05:28.499Z,1.20
2019-01-28T17:07:57.115Z,1.03
2019-01-28T17:10:25.807Z,1.13
2019-01-28T17:12:54.271Z,1.40
2019-01-28T17:15:23.638Z,1.30
2019-01-28T17:17:52.231Z,2.17
2019-01-28T17:20:35.472Z,1.30
2019-01-28T17:23:01.615Z,1.50
2019-01-28T17:25:41.511Z,1.40
2019-01-28T17:28:10.763Z,1.43
2019-01-28T17:30:43.978Z,1.67
2019-01-28T17:33:13.069Z,1.63
2019-01-28T17:35:41.829Z,0.80
2019-01-28T17:38:10.617Z,1.17
2019-01-28T17:40:40.440Z,1.60
2019-01-28T17:43:10.410Z,1.87
2019-01-28T17:45:39.167Z,1.60
2019-01-28T17:48:08.778Z,1.37
2019-01-28T17:50:43.433Z,2.10
2019-01-28T17:53:07.792Z,3.50
2019-01-28T17:55:36.414Z,2.07
2019-01-28T17:58:06.283Z,2.40
2019-01-28T18:00:39.402Z,2.37
2019-01-28T18:03:08.003Z,2.13
2019-01-28T18:05:36.445Z,2.00
2019-01-28T18:08:05.884Z,3.57
2019-01-28T18:10:34.670Z,2.77
2019-01-28T18:13:03.090Z,2.50
2019-01-28T18:15:31.514Z,1.70
2019-01-28T18:18:00.079Z,2.30
2019-01-28T18:20:28.565Z,2.60
2019-01-28T18:22:58.346Z,1.07
2019-01-28T18:25:32.383Z,3.13
2019-01-28T18:28:00.943Z,1.30
2019-01-28T18:31:09.320Z,1.30
2019-01-28T18:33:56.933Z,1.53
2019-01-28T18:36:44.625Z,1.07
2019-01-28T18:39:32.308Z,1.00
2019-01-28T18:42:00.769Z,1.47
2019-01-28T18:44:48.511Z,0.97
2019-01-28T18:47:36.279Z,1.47
2019-01-28T18:50:44.625Z,1.50
2019-01-28T18:53:13.113Z,1.47
2019-01-28T18:56:00.852Z,1.80
2019-01-28T18:58:48.491Z,1.43
2019-01-28T19:01:16.912Z,1.17
2019-01-28T19:06:58.082Z,1.73
2019-01-28T19:12:25.294Z,2.13
2019-01-28T19:25:27.178Z,1.60
2019-01-28T19:27:55.603Z,1.50
2019-01-28T19:30:43.393Z,3.87
2019-01-28T19:33:11.955Z,2.23
2019-01-28T19:35:40.478Z,2.17
2019-01-28T19:41:21.260Z,1.27
2019-01-28T19:46:43.408Z,1.60
2019-01-28T19:52:24.886Z,2.17
2019-01-28T19:58:26.388Z,1.00
2019-01-28T20:01:14.080Z,1.23
2019-01-28T20:04:01.861Z,2.17
2019-01-28T20:09:43.086Z,1.73
2019-01-28T20:12:11.596Z,5.43
2019-01-28T20:18:07.510Z,2.00
2019-01-28T20:20:55.224Z,2.30
2019-01-28T20:26:37.576Z,2.10
2019-01-28T20:29:45.991Z,2.50
2019-01-28T20:32:33.777Z,2.90
2019-01-28T20:35:21.554Z,2.47
2019-01-28T20:37:50.179Z,2.80
2019-01-28T20:40:37.954Z,2.23
2019-01-28T20:43:25.737Z,2.20
2019-01-28T20:46:13.528Z,1.53
2019-01-28T20:49:01.456Z,1.90
2019-01-28T20:52:09.865Z,2.10
2019-01-28T20:57:31.355Z,2.10
2019-01-28T20:59:59.889Z,1.70
2019-01-28T21:02:28.367Z,1.83
2019-01-28T21:05:37.103Z,1.80
2019-01-28T21:11:32.862Z,2.40
2019-01-28T21:14:01.336Z,1.50
2019-01-28T21:16:29.803Z,1.77
2019-01-28T21:21:34.154Z,1.27
2019-01-28T21:24:02.727Z,1.80
2019-01-28T21:26:31.146Z,0.90
2019-01-28T21:28:59.583Z,1.40
2019-01-28T21:31:47.358Z,1.60
2019-01-28T21:34:15.779Z,1.53
2019-01-28T21:42:07.153Z,1.03
2019-01-28T21:44:35.580Z,2.00
2019-01-28T21:49:58.243Z,2.07
2019-01-28T21:52:26.673Z,6.13
2019-01-28T21:54:55.094Z,4.63
2019-01-28T21:57:23.544Z,2.10
2019-01-28T21:59:51.974Z,1.60
2019-01-28T22:02:39.786Z,1.20
2019-01-28T22:05:48.122Z,1.10
2019-01-28T22:08:16.571Z,1.50
2019-01-28T22:10:44.995Z,1.53
2019-01-28T22:13:13.414Z,1.67
2019-01-28T22:18:15.418Z,1.23
2019-01-28T22:23:17.777Z,0.90
2019-01-28T22:28:20.043Z,1.10
2019-01-28T22:30:48.467Z,1.60
2019-01-28T22:33:36.325Z,1.00
2019-01-28T22:41:52.335Z,0.80
2019-01-28T22:44:20.750Z,1.53
2019-01-28T22:49:22.878Z,1.13
2019-01-28T22:51:51.307Z,0.80
2019-01-28T22:54:39.075Z,0.73
2019-01-28T22:57:07.495Z,1.57
2019-01-28T22:59:35.920Z,1.03
2019-01-28T23:02:23.758Z,0.80
2019-01-28T23:04:52.173Z,0.60
2019-01-28T23:07:20.593Z,0.77
2019-01-28T23:12:22.984Z,0.93
2019-01-28T23:14:51.438Z,1.00
2019-01-28T23:17:19.859Z,0.90
2019-01-28T23:19:48.277Z,0.80
2019-01-28T23:22:16.832Z,1.23
2019-01-28T23:24:45.218Z,0.70
2019-01-28T23:27:13.638Z,1.63
2019-01-28T23:32:16.050Z,0.53
2019-01-28T23:37:39.310Z,1.40
2019-01-28T23:40:28.513Z,0.83
2019-01-28T23:43:16.342Z,1.43
2019-01-28T23:45:44.761Z,1.23
2019-01-28T23:48:13.182Z,0.87
2019-01-28T23:50:41.626Z,1.33
2019-01-28T23:53:10.041Z,1.07
2019-01-28T23:55:57.755Z,1.00
2019-01-28T23:58:26.174Z,1.13
